hwlogo.jpg (8581 bytes)
Home Your Weather Products Services Weather On Your Site Contact
HW Version Logo
Weather Info
Your Weather (Options)
Canadian Weather
International Weather
Enter your " Place, State", US Zip Code or ICAO:  
Forecast Information Radar Information
Terrace, British Columbia, Canada  Lat: 54.47N, Lon: 128.57W
ICAO Used: CYXT
Current Conditions
Updated: 5:00 AM PST MON FEB 19 2018
Sun & Moon Information
Mostly Cloudy
Mostly Cloudy
Temp: -14°C
Humidity: 84%
Wind Speed: NNE 5 MPH
Barometer: 1027 mb
Dewpoint: -16°C
Heat Index: -14°C
Wind Chill: -20°C
Civil Twilight: 7:12 AM PST Moon Phase:
Waxing Crescent Moon
Sunrise: 7:49 AM PST
Sunset: 5:46 PM PST
Civil Twilight: 6:23 PM PST
Forecast for Terrace, BC:
(Forecast based on TAF for )
0539 AM PST MON FEB 19 2018
  
MORNING AFTERNOON EVENING OVERNIGHT
Mostly
Cloudy
Mostly
Cloudy
Mostly
Cloudy
Mostly
Cloudy
ZoneCast:
Dated: 0539 AM PST MON FEB 19 2018
Morning...Mostly cloudy with winds from the north at 12 mph.

Afternoon...Mostly cloudy with winds from the north at 12 mph.

Evening...Mostly cloudy with winds from the north at 12 mph.

Overnight...Mostly cloudy with winds from the north at 12 mph.

Original Encoded TAF:
Dated: 0539 AM PST MON FEB 19 2018
2018/02/19 13:39
TAF CYXT 191238Z 1913/2001 36010KT P6SM SCT150 BKN200 
      RMK NXT FCST BY 191900Z